createdAt,value
2022-09-21T00:01:27.416Z,54.33
2022-09-21T00:03:57.557Z,54.24
2022-09-21T00:06:25.170Z,54.34
2022-09-21T00:08:51.763Z,54.19
2022-09-21T00:11:20.056Z,54.26
2022-09-21T00:13:46.739Z,53.98
2022-09-21T00:16:13.924Z,54.06
2022-09-21T00:18:40.557Z,53.80
2022-09-21T00:21:11.503Z,53.80
2022-09-21T00:23:38.043Z,54.20
2022-09-21T00:26:09.979Z,54.24
2022-09-21T00:28:36.521Z,54.01
2022-09-21T00:31:07.638Z,54.14
2022-09-21T00:33:34.282Z,54.15
2022-09-21T00:36:05.145Z,54.15
2022-09-21T00:38:31.978Z,54.02
2022-09-21T00:40:58.607Z,53.69
2022-09-21T00:43:25.246Z,54.02
2022-09-21T00:45:54.768Z,54.19
2022-09-21T00:48:21.330Z,53.73
2022-09-21T00:50:49.719Z,53.87
2022-09-21T00:53:16.428Z,53.74
2022-09-21T00:55:51.998Z,53.75
2022-09-21T00:58:21.658Z,53.64
2022-09-21T01:00:48.441Z,54.21
2022-09-21T01:03:14.958Z,53.67
2022-09-21T01:05:41.536Z,53.67
2022-09-21T01:08:08.127Z,53.93
2022-09-21T01:10:46.876Z,53.71
2022-09-21T01:13:19.201Z,53.69
2022-09-21T01:15:48.629Z,53.70
2022-09-21T01:18:33.296Z,53.61
2022-09-21T01:21:11.447Z,53.40
2022-09-21T01:23:57.115Z,53.59
2022-09-21T01:26:32.646Z,53.53
2022-09-21T01:29:02.217Z,53.44
2022-09-21T01:31:34.122Z,53.91
2022-09-21T01:34:05.922Z,53.77
2022-09-21T01:36:32.575Z,53.65
2022-09-21T01:39:08.675Z,53.62
2022-09-21T01:41:35.474Z,53.39
2022-09-21T01:44:08.498Z,53.52
2022-09-21T01:46:35.141Z,53.64
2022-09-21T01:49:17.016Z,53.19
2022-09-21T01:51:50.392Z,53.38
2022-09-21T01:54:25.729Z,53.58
2022-09-21T01:56:59.592Z,53.34
2022-09-21T01:59:36.036Z,53.22
2022-09-21T02:02:14.043Z,53.44
2022-09-21T02:04:40.527Z,53.19
2022-09-21T02:07:07.551Z,53.35
2022-09-21T02:09:35.557Z,53.49
2022-09-21T02:12:02.228Z,53.57
2022-09-21T02:14:28.911Z,53.33
2022-09-21T02:17:15.493Z,53.23
2022-09-21T02:20:01.597Z,53.34
2022-09-21T02:22:40.837Z,53.38
2022-09-21T02:25:16.238Z,53.46
2022-09-21T02:28:33.862Z,53.23
2022-09-21T02:31:27.680Z,53.27
2022-09-21T02:34:05.289Z,53.05
2022-09-21T02:36:35.592Z,53.05
2022-09-21T02:39:16.101Z,53.00
2022-09-21T02:42:09.240Z,53.32
2022-09-21T02:44:40.736Z,53.08
2022-09-21T02:47:13.223Z,53.09
2022-09-21T02:49:42.457Z,53.42
2022-09-21T02:52:12.331Z,52.71
2022-09-21T02:54:39.014Z,52.91
2022-09-21T02:57:05.518Z,53.10
2022-09-21T02:59:32.198Z,53.26
2022-09-21T03:01:58.736Z,52.74
2022-09-21T03:04:25.289Z,53.12
2022-09-21T03:06:51.782Z,53.09
2022-09-21T03:09:18.572Z,53.04
2022-09-21T03:11:45.057Z,52.97
2022-09-21T03:14:11.536Z,52.98
2022-09-21T03:16:38.382Z,53.18
2022-09-21T03:19:05.119Z,52.91
2022-09-21T03:21:31.924Z,53.00
2022-09-21T03:23:58.596Z,53.13
2022-09-21T03:26:25.289Z,52.72
2022-09-21T03:28:53.435Z,53.01
2022-09-21T03:31:20.026Z,52.98
2022-09-21T03:33:46.617Z,52.91
2022-09-21T03:36:13.085Z,52.78
2022-09-21T03:38:39.683Z,52.85
2022-09-21T03:41:06.319Z,53.06
2022-09-21T03:43:32.926Z,52.85
2022-09-21T03:45:59.484Z,52.77
2022-09-21T03:48:26.003Z,52.72
2022-09-21T03:50:52.455Z,53.22
2022-09-21T03:53:19.068Z,52.91
2022-09-21T03:55:45.524Z,52.79
2022-09-21T03:58:11.956Z,52.67
2022-09-21T04:00:39.167Z,52.79
2022-09-21T04:03:05.703Z,52.66
2022-09-21T04:05:32.363Z,52.78
2022-09-21T04:08:01.962Z,52.82
2022-09-21T04:10:32.695Z,52.70
2022-09-21T04:13:01.164Z,52.77
2022-09-21T04:15:27.803Z,52.86
2022-09-21T04:17:54.298Z,52.54
2022-09-21T04:20:21.218Z,52.99
2022-09-21T04:22:47.747Z,52.74
2022-09-21T04:25:14.411Z,52.98
2022-09-21T04:27:41.146Z,52.82
2022-09-21T04:30:08.439Z,52.53
2022-09-21T04:32:34.905Z,52.63
2022-09-21T04:35:01.555Z,52.81
2022-09-21T04:37:28.109Z,52.82
2022-09-21T04:39:54.644Z,52.44
2022-09-21T04:42:21.099Z,52.81
2022-09-21T04:44:47.523Z,52.48
2022-09-21T04:47:14.588Z,52.76
2022-09-21T04:49:41.364Z,52.73
2022-09-21T04:52:08.052Z,52.51
2022-09-21T04:54:34.828Z,51.80
2022-09-21T04:57:01.496Z,51.71
2022-09-21T04:59:30.650Z,51.56
2022-09-21T05:01:57.178Z,50.86
2022-09-21T05:04:23.785Z,51.62
2022-09-21T05:06:52.856Z,51.50
2022-09-21T05:09:37.954Z,50.39
2022-09-21T05:12:04.798Z,50.95
2022-09-21T05:14:31.419Z,50.75
2022-09-21T05:16:57.963Z,50.64
2022-09-21T05:19:24.440Z,51.03
2022-09-21T05:21:50.999Z,50.86
2022-09-21T05:24:17.767Z,50.34
2022-09-21T05:26:44.209Z,50.43
2022-09-21T05:29:10.992Z,49.96
2022-09-21T05:31:56.366Z,50.43
2022-09-21T05:34:36.803Z,50.74
2022-09-21T05:37:32.220Z,50.35
2022-09-21T05:39:59.020Z,49.91
2022-09-21T05:42:25.938Z,49.71
2022-09-21T05:44:53.530Z,49.85
2022-09-21T05:47:23.251Z,50.48
2022-09-21T05:50:05.719Z,51.51
2022-09-21T05:52:41.007Z,51.75
2022-09-21T05:55:15.370Z,51.94
2022-09-21T05:57:54.164Z,52.36
2022-09-21T06:00:24.034Z,52.35
2022-09-21T06:03:29.259Z,52.51
2022-09-21T06:05:56.438Z,52.52
2022-09-21T06:08:23.260Z,52.60
2022-09-21T06:10:49.796Z,52.38
2022-09-21T06:13:16.319Z,52.47
2022-09-21T06:15:42.880Z,52.63
2022-09-21T06:18:11.299Z,52.58
2022-09-21T06:20:39.723Z,52.75
2022-09-21T06:23:08.261Z,52.63
2022-09-21T06:25:34.905Z,52.75
2022-09-21T06:28:05.292Z,53.01
2022-09-21T06:30:34.459Z,52.93
2022-09-21T06:33:01.263Z,52.80
2022-09-21T06:35:31.697Z,52.77
2022-09-21T06:37:59.597Z,52.83
2022-09-21T06:40:27.761Z,52.65
2022-09-21T06:43:01.386Z,52.95
2022-09-21T06:45:28.668Z,53.04
2022-09-21T06:47:55.200Z,52.66
2022-09-21T06:50:21.770Z,53.08
2022-09-21T06:52:48.424Z,52.87
2022-09-21T06:55:15.270Z,52.70
2022-09-21T06:57:41.787Z,52.98
2022-09-21T07:00:10.056Z,52.85
2022-09-21T07:02:36.578Z,52.87
2022-09-21T07:05:03.326Z,52.68
2022-09-21T07:07:33.314Z,53.00
2022-09-21T07:10:13.186Z,52.94
2022-09-21T07:12:41.419Z,52.73
2022-09-21T07:15:09.168Z,52.60
2022-09-21T07:17:37.373Z,52.93
2022-09-21T07:20:04.560Z,52.83
2022-09-21T07:22:32.102Z,52.85
2022-09-21T07:24:58.646Z,52.93
2022-09-21T07:27:25.503Z,52.79
2022-09-21T07:29:52.271Z,52.83
2022-09-21T07:32:19.022Z,52.92
2022-09-21T07:34:46.489Z,53.06
2022-09-21T07:37:13.549Z,53.02
2022-09-21T07:39:40.077Z,52.60
2022-09-21T07:42:06.799Z,52.64
2022-09-21T07:44:34.151Z,53.04
2022-09-21T07:47:02.275Z,53.18
2022-09-21T07:49:28.788Z,52.83
2022-09-21T07:51:56.127Z,52.92
2022-09-21T07:54:23.879Z,52.98
2022-09-21T07:57:08.910Z,52.68
2022-09-21T07:59:35.442Z,52.78
2022-09-21T08:02:02.003Z,52.67
2022-09-21T08:04:28.645Z,52.77
2022-09-21T08:06:55.638Z,52.86
2022-09-21T08:09:22.370Z,52.73
2022-09-21T08:11:49.038Z,52.38
2022-09-21T08:14:22.424Z,52.72
2022-09-21T08:16:51.966Z,52.73
2022-09-21T08:19:18.904Z,52.74
2022-09-21T08:21:45.776Z,53.01
2022-09-21T08:24:12.305Z,52.84
2022-09-21T08:26:38.749Z,53.00
2022-09-21T08:29:07.020Z,52.90
2022-09-21T08:31:33.572Z,52.88
2022-09-21T08:34:01.019Z,53.26
2022-09-21T08:36:27.544Z,52.67
2022-09-21T08:38:55.148Z,52.64
2022-09-21T08:41:26.509Z,52.66
2022-09-21T08:44:14.011Z,52.80
2022-09-21T08:46:40.709Z,52.53
2022-09-21T08:49:11.718Z,52.83
2022-09-21T08:51:42.342Z,52.63
2022-09-21T08:54:29.751Z,52.70
2022-09-21T08:57:11.516Z,52.67
2022-09-21T08:59:38.196Z,52.99
2022-09-21T09:02:30.723Z,52.51
2022-09-21T09:05:17.798Z,52.95
2022-09-21T09:08:03.350Z,52.93
2022-09-21T09:10:41.874Z,52.95
2022-09-21T09:13:28.544Z,52.83
2022-09-21T09:16:13.788Z,52.75
2022-09-21T09:19:00.939Z,52.86
2022-09-21T09:21:32.205Z,52.80
2022-09-21T09:24:17.369Z,52.80
2022-09-21T09:26:52.955Z,53.09
2022-09-21T09:29:50.368Z,53.15
2022-09-21T09:32:17.247Z,52.92
2022-09-21T09:34:55.623Z,52.95
2022-09-21T09:37:25.094Z,53.05
2022-09-21T09:39:54.773Z,52.77
2022-09-21T09:42:26.656Z,53.26
2022-09-21T09:45:11.772Z,53.00
2022-09-21T09:47:58.069Z,52.96
2022-09-21T09:50:33.660Z,53.08
2022-09-21T09:53:06.163Z,52.88
2022-09-21T09:55:41.996Z,53.03
2022-09-21T09:58:22.374Z,53.12
2022-09-21T10:00:52.024Z,52.99
2022-09-21T10:03:20.925Z,52.93
2022-09-21T10:05:47.433Z,53.31
2022-09-21T10:08:44.298Z,53.25
2022-09-21T10:11:11.719Z,52.93
2022-09-21T10:13:39.984Z,53.23
2022-09-21T10:16:19.693Z,53.25
2022-09-21T10:19:01.358Z,53.13
2022-09-21T10:21:38.133Z,53.19
2022-09-21T10:24:06.524Z,53.04
2022-09-21T10:26:50.453Z,53.14
2022-09-21T10:29:28.235Z,53.22
2022-09-21T10:32:06.866Z,53.17
2022-09-21T10:34:35.511Z,53.33
2022-09-21T10:37:03.493Z,53.28
2022-09-21T10:39:33.760Z,53.07
2022-09-21T10:42:07.661Z,52.92
2022-09-21T10:44:46.519Z,53.05
2022-09-21T10:47:32.830Z,52.88
2022-09-21T10:50:01.416Z,53.13
2022-09-21T10:52:42.439Z,53.07
2022-09-21T10:55:20.918Z,52.85
2022-09-21T10:57:47.536Z,52.94
2022-09-21T11:00:35.301Z,52.81
2022-09-21T11:03:06.691Z,52.75
2022-09-21T11:05:34.664Z,52.81
2022-09-21T11:08:14.307Z,53.19
2022-09-21T11:10:48.991Z,53.12
2022-09-21T11:13:43.556Z,52.83
2022-09-21T11:16:31.616Z,53.21
2022-09-21T11:19:00.390Z,52.82
2022-09-21T11:21:39.133Z,53.05
2022-09-21T11:24:28.703Z,53.06
2022-09-21T11:27:18.131Z,53.08
2022-09-21T11:30:07.150Z,53.08
2022-09-21T11:33:02.235Z,53.26
2022-09-21T11:36:08.851Z,53.11
2022-09-21T11:38:42.646Z,53.46
2022-09-21T11:41:49.939Z,53.31
2022-09-21T11:44:38.250Z,53.27
2022-09-21T11:47:30.770Z,53.44
2022-09-21T11:50:26.021Z,53.35
2022-09-21T11:53:25.359Z,53.35
2022-09-21T11:56:14.022Z,53.35
2022-09-21T11:58:53.096Z,52.95
2022-09-21T12:01:36.916Z,53.21
2022-09-21T12:04:41.015Z,53.12
2022-09-21T12:07:39.977Z,53.26
2022-09-21T12:10:26.963Z,53.35
2022-09-21T12:13:13.710Z,53.17
2022-09-21T12:15:47.928Z,53.45
2022-09-21T12:18:34.435Z,53.31
2022-09-21T12:21:13.144Z,53.34
2022-09-21T12:23:48.877Z,53.41
2022-09-21T12:26:18.382Z,53.63
2022-09-21T12:28:47.872Z,53.46
2022-09-21T12:31:20.084Z,53.43
2022-09-21T12:33:56.795Z,53.49
2022-09-21T12:36:35.959Z,53.47
2022-09-21T12:39:13.732Z,53.38
2022-09-21T12:41:53.714Z,53.39
2022-09-21T12:44:54.229Z,53.19
2022-09-21T12:47:59.764Z,53.38
2022-09-21T12:50:44.471Z,53.10
2022-09-21T12:53:30.765Z,52.90
2022-09-21T12:56:01.118Z,53.40
2022-09-21T12:58:53.836Z,53.40
2022-09-21T13:01:32.919Z,53.17
2022-09-21T13:04:41.758Z,53.45
2022-09-21T13:07:13.106Z,53.21
2022-09-21T13:09:41.842Z,53.91
2022-09-21T13:12:17.146Z,53.49
2022-09-21T13:14:48.674Z,53.25
2022-09-21T13:17:23.595Z,53.49
2022-09-21T13:20:02.301Z,53.49
2022-09-21T13:22:34.853Z,53.31
2022-09-21T13:25:13.507Z,53.68
2022-09-21T13:28:01.576Z,53.37
2022-09-21T13:30:32.158Z,53.38
2022-09-21T13:32:58.761Z,53.26
2022-09-21T13:35:50.095Z,53.51
2022-09-21T13:38:23.544Z,53.55
2022-09-21T13:40:56.263Z,53.31
2022-09-21T13:43:23.605Z,53.30
2022-09-21T13:45:54.515Z,53.19
2022-09-21T13:48:27.182Z,53.44
2022-09-21T13:50:57.737Z,53.58
2022-09-21T13:53:28.498Z,53.29
2022-09-21T13:56:00.466Z,53.48
2022-09-21T13:58:32.746Z,53.23
2022-09-21T14:01:02.468Z,53.49
2022-09-21T14:03:47.275Z,53.05
2022-09-21T14:06:28.025Z,53.50
2022-09-21T14:09:16.778Z,53.53
2022-09-21T14:11:45.122Z,53.53
2022-09-21T14:14:12.193Z,53.40
2022-09-21T14:16:39.467Z,53.21
2022-09-21T14:19:32.906Z,53.20
2022-09-21T14:22:05.432Z,53.10
2022-09-21T14:24:49.853Z,52.87
2022-09-21T14:27:26.009Z,53.21
2022-09-21T14:29:59.333Z,52.97
2022-09-21T14:32:28.396Z,53.29
2022-09-21T14:34:58.802Z,53.42
2022-09-21T14:37:31.705Z,53.04
2022-09-21T14:39:58.400Z,53.09
2022-09-21T14:42:28.223Z,52.88
2022-09-21T14:45:03.924Z,52.81
2022-09-21T14:47:36.493Z,53.12
2022-09-21T14:50:07.509Z,52.93
2022-09-21T14:53:14.167Z,52.86
2022-09-21T14:55:47.234Z,52.97
2022-09-21T14:58:55.327Z,53.06
2022-09-21T15:01:36.803Z,53.30
2022-09-21T15:04:17.563Z,53.27
2022-09-21T15:07:09.259Z,52.87
2022-09-21T15:10:06.584Z,54.43
2022-09-21T15:12:58.514Z,53.02
2022-09-21T15:15:42.834Z,53.15
2022-09-21T15:18:30.669Z,52.27
2022-09-21T15:21:01.828Z,52.20
2022-09-21T15:23:29.870Z,52.13
2022-09-21T15:26:02.651Z,52.22
2022-09-21T15:28:58.057Z,51.85
2022-09-21T15:31:22.328Z,52.18
2022-09-21T15:33:49.015Z,52.12
2022-09-21T15:36:27.356Z,52.08
2022-09-21T15:38:59.452Z,52.17
2022-09-21T15:41:43.292Z,51.81
2022-09-21T15:44:21.714Z,51.96
2022-09-21T15:46:55.301Z,51.92
2022-09-21T15:49:22.030Z,51.71
2022-09-21T15:52:16.050Z,51.81
2022-09-21T15:54:49.077Z,51.62
2022-09-21T15:57:40.453Z,51.86
2022-09-21T16:00:18.847Z,51.57
2022-09-21T16:03:16.345Z,51.42
2022-09-21T16:05:47.928Z,51.85
2022-09-21T16:08:28.097Z,51.67
2022-09-21T16:11:29.052Z,51.66
2022-09-21T16:14:33.708Z,51.60
2022-09-21T16:17:07.329Z,51.79
2022-09-21T16:19:50.789Z,51.52
2022-09-21T16:22:20.041Z,51.22
2022-09-21T16:24:51.950Z,51.63
2022-09-21T16:27:19.624Z,51.56
2022-09-21T16:29:48.437Z,51.41
2022-09-21T16:32:18.043Z,51.43
2022-09-21T16:34:54.863Z,51.50
2022-09-21T16:37:28.764Z,51.32
2022-09-21T16:39:56.986Z,51.36
2022-09-21T16:42:24.000Z,51.02
2022-09-21T16:44:50.555Z,51.24
2022-09-21T16:47:25.241Z,50.75
2022-09-21T16:49:56.489Z,51.12
2022-09-21T16:52:23.900Z,50.96
2022-09-21T16:54:51.164Z,50.69
2022-09-21T16:57:17.960Z,50.85
2022-09-21T16:59:44.534Z,50.57
2022-09-21T17:02:12.362Z,50.73
2022-09-21T17:04:38.959Z,50.85
2022-09-21T17:07:05.544Z,50.71
2022-09-21T17:09:35.728Z,50.64
2022-09-21T17:12:03.438Z,50.67
2022-09-21T17:14:35.615Z,50.21
2022-09-21T17:17:19.842Z,50.59
2022-09-21T17:19:46.899Z,50.55
2022-09-21T17:22:23.167Z,50.62
2022-09-21T17:24:52.082Z,50.74
2022-09-21T17:27:23.477Z,50.41
2022-09-21T17:29:50.304Z,50.47
2022-09-21T17:32:21.268Z,50.49
2022-09-21T17:35:00.444Z,50.27
2022-09-21T17:37:27.329Z,50.37
2022-09-21T17:39:53.933Z,50.30
2022-09-21T17:42:23.022Z,50.57
2022-09-21T17:45:16.934Z,50.50
2022-09-21T17:47:43.717Z,50.79
2022-09-21T17:50:13.384Z,50.38
2022-09-21T17:52:59.732Z,50.35
2022-09-21T17:55:26.566Z,50.47
2022-09-21T17:58:25.104Z,50.63
2022-09-21T18:01:12.185Z,50.55
2022-09-21T18:03:42.670Z,50.39
2022-09-21T18:06:09.974Z,50.39
2022-09-21T18:08:37.302Z,50.44
2022-09-21T18:11:13.086Z,50.54
2022-09-21T18:14:05.604Z,50.70
2022-09-21T18:16:41.554Z,50.76
2022-09-21T18:19:14.298Z,50.75
2022-09-21T18:21:42.292Z,51.00
2022-09-21T18:24:31.168Z,50.52
2022-09-21T18:26:58.890Z,50.66
2022-09-21T18:29:41.056Z,50.65
2022-09-21T18:32:15.340Z,50.34
2022-09-21T18:34:54.751Z,50.42
2022-09-21T18:37:21.352Z,50.59
2022-09-21T18:40:09.066Z,50.94
2022-09-21T18:42:40.465Z,50.68
2022-09-21T18:45:28.643Z,50.71
2022-09-21T18:48:11.028Z,50.76
2022-09-21T18:50:50.142Z,50.71
2022-09-21T18:53:45.428Z,50.82
2022-09-21T18:56:13.013Z,50.84
2022-09-21T18:58:40.791Z,50.83
2022-09-21T19:01:07.889Z,50.73
2022-09-21T19:03:35.311Z,50.63
2022-09-21T19:06:26.328Z,50.83
2022-09-21T19:08:59.583Z,50.57
2022-09-21T19:11:38.119Z,50.75
2022-09-21T19:14:35.718Z,50.69
2022-09-21T19:17:17.674Z,50.94
2022-09-21T19:19:46.946Z,50.71
2022-09-21T19:22:14.951Z,50.65
2022-09-21T19:25:12.390Z,50.45
2022-09-21T19:27:59.868Z,50.37
2022-09-21T19:30:26.981Z,50.32
2022-09-21T19:32:58.239Z,50.31
2022-09-21T19:35:32.051Z,50.16
2022-09-21T19:38:01.374Z,50.20
2022-09-21T19:40:33.104Z,50.26
2022-09-21T19:43:20.722Z,50.36
2022-09-21T19:46:05.505Z,50.57
2022-09-21T19:48:43.634Z,50.42
2022-09-21T19:51:18.829Z,50.68
2022-09-21T19:54:08.446Z,50.56
2022-09-21T19:56:55.607Z,50.58
2022-09-21T19:59:42.845Z,50.55
2022-09-21T20:02:22.046Z,50.50
2022-09-21T20:04:55.788Z,50.83
2022-09-21T20:07:30.368Z,50.60
2022-09-21T20:10:22.145Z,50.47
2022-09-21T20:13:20.751Z,50.70
2022-09-21T20:16:25.741Z,50.46
2022-09-21T20:19:01.338Z,50.41
2022-09-21T20:21:37.305Z,50.37
2022-09-21T20:24:26.056Z,50.29
2022-09-21T20:26:52.807Z,50.83
2022-09-21T20:29:20.007Z,50.49
2022-09-21T20:31:47.863Z,50.62
2022-09-21T20:34:14.411Z,50.84
2022-09-21T20:36:41.015Z,50.73
2022-09-21T20:39:07.600Z,50.70
2022-09-21T20:41:34.109Z,50.47
2022-09-21T20:44:01.730Z,50.50
2022-09-21T20:46:28.392Z,50.65
2022-09-21T20:49:00.211Z,50.58
2022-09-21T20:51:28.159Z,50.84
2022-09-21T20:53:54.642Z,50.72
2022-09-21T20:56:21.211Z,50.61
2022-09-21T20:58:47.723Z,50.42
2022-09-21T21:01:14.407Z,50.63
2022-09-21T21:03:40.978Z,50.65
2022-09-21T21:06:18.715Z,50.47
2022-09-21T21:08:45.365Z,50.52
2022-09-21T21:11:11.902Z,50.43
2022-09-21T21:13:38.389Z,50.22
2022-09-21T21:16:09.468Z,50.63
2022-09-21T21:18:41.446Z,50.35
2022-09-21T21:21:08.014Z,50.47
2022-09-21T21:23:54.490Z,50.49
2022-09-21T21:26:26.268Z,50.14
2022-09-21T21:29:00.012Z,50.39
2022-09-21T21:31:26.572Z,50.59
2022-09-21T21:33:53.157Z,50.41
2022-09-21T21:36:19.737Z,50.30
2022-09-21T21:38:46.291Z,50.06
2022-09-21T21:41:14.159Z,50.40
2022-09-21T21:43:41.189Z,50.39
2022-09-21T21:46:08.886Z,50.21
2022-09-21T21:48:36.220Z,50.22
2022-09-21T21:51:03.384Z,50.16
2022-09-21T21:53:32.980Z,50.53
2022-09-21T21:56:06.241Z,50.27
2022-09-21T21:58:33.602Z,50.30
2022-09-21T22:01:14.028Z,50.47
2022-09-21T22:03:40.978Z,50.20
2022-09-21T22:06:08.836Z,49.94
2022-09-21T22:08:35.955Z,50.11
2022-09-21T22:11:02.799Z,50.09
2022-09-21T22:13:34.279Z,50.29
2022-09-21T22:16:05.612Z,49.95
2022-09-21T22:18:32.449Z,50.29
2022-09-21T22:21:07.990Z,49.92
2022-09-21T22:23:34.514Z,50.27
2022-09-21T22:26:08.352Z,50.00
2022-09-21T22:28:36.438Z,50.06
2022-09-21T22:31:03.325Z,49.97
2022-09-21T22:33:33.527Z,50.02
2022-09-21T22:36:08.674Z,50.18
2022-09-21T22:38:39.195Z,50.12
2022-09-21T22:41:10.361Z,49.89
2022-09-21T22:43:36.948Z,50.11
2022-09-21T22:46:04.139Z,49.84
2022-09-21T22:48:30.699Z,50.27
2022-09-21T22:50:57.232Z,49.96
2022-09-21T22:53:23.893Z,49.70
2022-09-21T22:56:06.823Z,49.99
2022-09-21T22:58:34.126Z,49.92
2022-09-21T23:01:04.668Z,49.77
2022-09-21T23:03:31.171Z,49.85
2022-09-21T23:05:58.243Z,49.91
2022-09-21T23:08:25.112Z,50.09
2022-09-21T23:10:51.659Z,49.94
2022-09-21T23:13:18.267Z,49.60
2022-09-21T23:15:44.918Z,49.74
2022-09-21T23:18:11.454Z,49.48
2022-09-21T23:20:37.943Z,49.71
2022-09-21T23:23:04.458Z,50.07
2022-09-21T23:25:30.974Z,50.26
2022-09-21T23:27:57.704Z,50.40
2022-09-21T23:30:24.204Z,50.43
2022-09-21T23:32:53.903Z,50.41
2022-09-21T23:35:20.405Z,50.72
2022-09-21T23:37:46.896Z,50.33
2022-09-21T23:40:13.428Z,50.32
2022-09-21T23:42:39.940Z,50.57
2022-09-21T23:45:07.036Z,50.30
2022-09-21T23:47:35.734Z,50.66
2022-09-21T23:50:02.189Z,50.49
2022-09-21T23:52:28.742Z,50.66
2022-09-21T23:54:55.208Z,50.33
2022-09-21T23:57:21.745Z,50.66
2022-09-21T23:59:50.053Z,50.39
